sensor_id;sensor_type;location;lat;lon;timestamp;temperature;humidity
18291;DHT22;9271;48.590;8.866;2023-05-10T00:01:13;15.10;99.90
18291;DHT22;9271;48.590;8.866;2023-05-10T00:03:39;15.50;99.90
18291;DHT22;9271;48.590;8.866;2023-05-10T00:06:06;15.80;99.90
18291;DHT22;9271;48.590;8.866;2023-05-10T00:08:33;15.60;99.90
18291;DHT22;9271;48.590;8.866;2023-05-10T00:11:00;15.80;99.90
18291;DHT22;9271;48.590;8.866;2023-05-10T00:13:27;15.80;99.90
18291;DHT22;9271;48.590;8.866;2023-05-10T00:15:53;15.80;99.90
18291;DHT22;9271;48.590;8.866;2023-05-10T00:18:21;15.80;99.90
18291;DHT22;9271;48.590;8.866;2023-05-10T00:20:48;15.80;99.90
18291;DHT22;9271;48.590;8.866;2023-05-10T00:23:15;15.80;99.90
18291;DHT22;9271;48.590;8.866;2023-05-10T00:25:41;15.70;99.90
18291;DHT22;9271;48.590;8.866;2023-05-10T00:28:08;15.90;99.90
18291;DHT22;9271;48.590;8.866;2023-05-10T00:30:35;15.90;99.90
18291;DHT22;9271;48.590;8.866;2023-05-10T00:33:01;15.90;99.90
18291;DHT22;9271;48.590;8.866;2023-05-10T00:35:29;16.10;99.90
18291;DHT22;9271;48.590;8.866;2023-05-10T00:37:56;15.90;99.90
18291;DHT22;9271;48.590;8.866;2023-05-10T00:40:23;16.10;99.90
18291;DHT22;9271;48.590;8.866;2023-05-10T00:42:49;16.00;99.90
18291;DHT22;9271;48.590;8.866;2023-05-10T00:45:16;15.90;99.90
18291;DHT22;9271;48.590;8.866;2023-05-10T00:47:43;15.60;99.90
18291;DHT22;9271;48.590;8.866;2023-05-10T00:50:10;15.50;99.90
18291;DHT22;9271;48.590;8.866;2023-05-10T00:52:38;15.60;99.90
18291;DHT22;9271;48.590;8.866;2023-05-10T00:55:06;15.80;99.90
18291;DHT22;9271;48.590;8.866;2023-05-10T00:57:33;15.70;99.90
18291;DHT22;9271;48.590;8.866;2023-05-10T01:00:00;15.50;99.90
18291;DHT22;9271;48.590;8.866;2023-05-10T01:02:28;15.30;99.90
18291;DHT22;9271;48.590;8.866;2023-05-10T01:04:55;15.30;99.90
18291;DHT22;9271;48.590;8.866;2023-05-10T01:07:21;15.20;99.90
18291;DHT22;9271;48.590;8.866;2023-05-10T01:09:50;15.00;99.90
18291;DHT22;9271;48.590;8.866;2023-05-10T01:12:16;15.00;99.90
18291;DHT22;9271;48.590;8.866;2023-05-10T01:14:43;15.10;99.90
18291;DHT22;9271;48.590;8.866;2023-05-10T01:17:11;15.00;99.90
18291;DHT22;9271;48.590;8.866;2023-05-10T01:19:38;15.10;99.90
18291;DHT22;9271;48.590;8.866;2023-05-10T01:22:14;15.10;99.90
18291;DHT22;9271;48.590;8.866;2023-05-10T01:25:10;15.00;99.90
18291;DHT22;9271;48.590;8.866;2023-05-10T01:27:54;15.00;99.90
18291;DHT22;9271;48.590;8.866;2023-05-10T01:30:41;15.10;99.90
18291;DHT22;9271;48.590;8.866;2023-05-10T01:33:19;15.10;99.90
18291;DHT22;9271;48.590;8.866;2023-05-10T01:35:55;15.20;99.90
18291;DHT22;9271;48.590;8.866;2023-05-10T01:38:32;15.30;99.90
18291;DHT22;9271;48.590;8.866;2023-05-10T01:41:07;15.30;99.90
18291;DHT22;9271;48.590;8.866;2023-05-10T01:43:40;15.20;99.90
18291;DHT22;9271;48.590;8.866;2023-05-10T01:46:13;15.20;99.90
18291;DHT22;9271;48.590;8.866;2023-05-10T01:48:46;15.40;99.90
18291;DHT22;9271;48.590;8.866;2023-05-10T01:51:18;15.30;99.90
18291;DHT22;9271;48.590;8.866;2023-05-10T01:53:46;15.30;99.90
18291;DHT22;9271;48.590;8.866;2023-05-10T01:56:14;15.30;99.90
18291;DHT22;9271;48.590;8.866;2023-05-10T01:58:43;15.10;99.90
18291;DHT22;9271;48.590;8.866;2023-05-10T02:01:12;15.20;99.90
18291;DHT22;9271;48.590;8.866;2023-05-10T02:03:42;15.30;99.90
18291;DHT22;9271;48.590;8.866;2023-05-10T02:06:10;15.20;99.90
18291;DHT22;9271;48.590;8.866;2023-05-10T02:08:40;14.70;99.90
18291;DHT22;9271;48.590;8.866;2023-05-10T02:11:08;14.50;99.90
18291;DHT22;9271;48.590;8.866;2023-05-10T02:13:36;14.40;99.90
18291;DHT22;9271;48.590;8.866;2023-05-10T02:16:05;14.40;99.90
18291;DHT22;9271;48.590;8.866;2023-05-10T02:18:33;14.30;99.90
18291;DHT22;9271;48.590;8.866;2023-05-10T02:21:03;14.50;99.90
18291;DHT22;9271;48.590;8.866;2023-05-10T02:23:30;14.50;99.90
18291;DHT22;9271;48.590;8.866;2023-05-10T02:25:59;14.60;99.90
18291;DHT22;9271;48.590;8.866;2023-05-10T02:28:27;15.00;99.90
18291;DHT22;9271;48.590;8.866;2023-05-10T02:30:55;15.10;99.90
18291;DHT22;9271;48.590;8.866;2023-05-10T02:33:22;15.20;99.90
18291;DHT22;9271;48.590;8.866;2023-05-10T02:35:50;15.20;99.90
18291;DHT22;9271;48.590;8.866;2023-05-10T02:38:19;15.20;99.90
18291;DHT22;9271;48.590;8.866;2023-05-10T02:40:47;15.10;99.90
18291;DHT22;9271;48.590;8.866;2023-05-10T02:43:15;15.20;99.90
18291;DHT22;9271;48.590;8.866;2023-05-10T02:45:46;15.30;99.90
18291;DHT22;9271;48.590;8.866;2023-05-10T02:48:13;15.10;99.90
18291;DHT22;9271;48.590;8.866;2023-05-10T02:50:42;15.10;99.90
18291;DHT22;9271;48.590;8.866;2023-05-10T02:53:14;15.20;99.90
18291;DHT22;9271;48.590;8.866;2023-05-10T02:55:45;15.30;99.90
18291;DHT22;9271;48.590;8.866;2023-05-10T02:58:13;15.00;99.90
18291;DHT22;9271;48.590;8.866;2023-05-10T03:00:40;14.60;99.90
18291;DHT22;9271;48.590;8.866;2023-05-10T03:03:07;14.10;99.90
18291;DHT22;9271;48.590;8.866;2023-05-10T03:05:33;13.80;99.90
18291;DHT22;9271;48.590;8.866;2023-05-10T03:08:00;13.60;99.90
18291;DHT22;9271;48.590;8.866;2023-05-10T03:10:30;13.70;99.90
18291;DHT22;9271;48.590;8.866;2023-05-10T03:13:10;13.70;99.90
18291;DHT22;9271;48.590;8.866;2023-05-10T03:15:46;13.50;99.90
18291;DHT22;9271;48.590;8.866;2023-05-10T03:18:18;13.50;99.90
18291;DHT22;9271;48.590;8.866;2023-05-10T03:20:49;13.50;99.90
18291;DHT22;9271;48.590;8.866;2023-05-10T03:23:21;13.60;99.90
18291;DHT22;9271;48.590;8.866;2023-05-10T03:25:49;13.70;99.90
18291;DHT22;9271;48.590;8.866;2023-05-10T03:28:18;14.00;99.90
18291;DHT22;9271;48.590;8.866;2023-05-10T03:30:46;14.00;99.90
18291;DHT22;9271;48.590;8.866;2023-05-10T03:33:13;13.70;99.90
18291;DHT22;9271;48.590;8.866;2023-05-10T03:35:40;13.60;99.90
18291;DHT22;9271;48.590;8.866;2023-05-10T03:38:06;13.70;99.90
18291;DHT22;9271;48.590;8.866;2023-05-10T03:40:33;13.90;99.90
18291;DHT22;9271;48.590;8.866;2023-05-10T03:43:00;14.00;99.90
18291;DHT22;9271;48.590;8.866;2023-05-10T03:45:28;14.30;99.90
18291;DHT22;9271;48.590;8.866;2023-05-10T03:47:54;14.70;99.90
18291;DHT22;9271;48.590;8.866;2023-05-10T03:50:21;14.80;99.90
18291;DHT22;9271;48.590;8.866;2023-05-10T03:52:48;14.90;99.90
18291;DHT22;9271;48.590;8.866;2023-05-10T03:55:15;15.00;99.90
18291;DHT22;9271;48.590;8.866;2023-05-10T03:57:42;15.00;99.90
18291;DHT22;9271;48.590;8.866;2023-05-10T04:00:10;15.00;99.90
18291;DHT22;9271;48.590;8.866;2023-05-10T04:02:38;15.10;99.90
18291;DHT22;9271;48.590;8.866;2023-05-10T04:05:05;15.20;99.90
18291;DHT22;9271;48.590;8.866;2023-05-10T04:07:32;15.30;99.90
18291;DHT22;9271;48.590;8.866;2023-05-10T04:09:58;15.40;99.90
18291;DHT22;9271;48.590;8.866;2023-05-10T04:12:25;15.30;99.90
18291;DHT22;9271;48.590;8.866;2023-05-10T04:14:52;15.30;99.90
18291;DHT22;9271;48.590;8.866;2023-05-10T04:17:18;15.30;99.90
18291;DHT22;9271;48.590;8.866;2023-05-10T04:19:46;15.30;99.90
18291;DHT22;9271;48.590;8.866;2023-05-10T04:22:13;15.30;99.90
18291;DHT22;9271;48.590;8.866;2023-05-10T04:24:40;15.40;99.90
18291;DHT22;9271;48.590;8.866;2023-05-10T04:27:06;15.50;99.90
18291;DHT22;9271;48.590;8.866;2023-05-10T04:29:33;15.60;99.90
18291;DHT22;9271;48.590;8.866;2023-05-10T04:31:59;15.40;99.90
18291;DHT22;9271;48.590;8.866;2023-05-10T04:34:26;15.50;99.90
18291;DHT22;9271;48.590;8.866;2023-05-10T04:36:54;15.40;99.90
18291;DHT22;9271;48.590;8.866;2023-05-10T04:39:21;15.20;99.90
18291;DHT22;9271;48.590;8.866;2023-05-10T04:41:47;14.90;99.90
18291;DHT22;9271;48.590;8.866;2023-05-10T04:44:14;15.00;99.90
18291;DHT22;9271;48.590;8.866;2023-05-10T04:46:42;15.10;99.90
18291;DHT22;9271;48.590;8.866;2023-05-10T04:49:08;15.20;99.90
18291;DHT22;9271;48.590;8.866;2023-05-10T04:51:35;15.40;99.90
18291;DHT22;9271;48.590;8.866;2023-05-10T04:54:03;15.60;99.90
18291;DHT22;9271;48.590;8.866;2023-05-10T04:56:30;15.70;99.90
18291;DHT22;9271;48.590;8.866;2023-05-10T04:58:56;15.50;99.90
18291;DHT22;9271;48.590;8.866;2023-05-10T05:01:23;15.50;99.90
18291;DHT22;9271;48.590;8.866;2023-05-10T05:03:49;15.30;99.90
18291;DHT22;9271;48.590;8.866;2023-05-10T05:06:18;14.80;99.90
18291;DHT22;9271;48.590;8.866;2023-05-10T05:08:46;14.50;99.90
18291;DHT22;9271;48.590;8.866;2023-05-10T05:11:16;14.50;99.90
18291;DHT22;9271;48.590;8.866;2023-05-10T05:13:42;14.70;99.90
18291;DHT22;9271;48.590;8.866;2023-05-10T05:16:09;14.30;99.90
18291;DHT22;9271;48.590;8.866;2023-05-10T05:18:36;14.50;99.90
18291;DHT22;9271;48.590;8.866;2023-05-10T05:21:03;14.60;99.90
18291;DHT22;9271;48.590;8.866;2023-05-10T05:23:29;14.70;99.90
18291;DHT22;9271;48.590;8.866;2023-05-10T05:25:56;14.90;99.90
18291;DHT22;9271;48.590;8.866;2023-05-10T05:28:24;15.00;99.90
18291;DHT22;9271;48.590;8.866;2023-05-10T05:30:51;15.00;99.90
18291;DHT22;9271;48.590;8.866;2023-05-10T05:33:17;14.80;99.90
18291;DHT22;9271;48.590;8.866;2023-05-10T05:35:44;14.70;99.90
18291;DHT22;9271;48.590;8.866;2023-05-10T05:38:15;14.70;99.90
18291;DHT22;9271;48.590;8.866;2023-05-10T05:40:42;14.50;99.90
18291;DHT22;9271;48.590;8.866;2023-05-10T05:43:09;14.50;99.90
18291;DHT22;9271;48.590;8.866;2023-05-10T05:45:37;14.60;99.90
18291;DHT22;9271;48.590;8.866;2023-05-10T05:48:04;14.70;99.90
18291;DHT22;9271;48.590;8.866;2023-05-10T05:50:31;14.70;99.90
18291;DHT22;9271;48.590;8.866;2023-05-10T05:52:57;14.70;99.90
18291;DHT22;9271;48.590;8.866;2023-05-10T05:55:24;14.70;99.90
18291;DHT22;9271;48.590;8.866;2023-05-10T05:57:51;14.50;99.90
18291;DHT22;9271;48.590;8.866;2023-05-10T06:00:18;14.40;99.90
18291;DHT22;9271;48.590;8.866;2023-05-10T06:02:46;14.70;99.90
18291;DHT22;9271;48.590;8.866;2023-05-10T06:05:13;14.90;99.90
18291;DHT22;9271;48.590;8.866;2023-05-10T06:07:40;15.10;99.90
18291;DHT22;9271;48.590;8.866;2023-05-10T06:10:07;15.00;99.90
18291;DHT22;9271;48.590;8.866;2023-05-10T06:12:34;15.20;99.90
18291;DHT22;9271;48.590;8.866;2023-05-10T06:15:01;15.40;99.90
18291;DHT22;9271;48.590;8.866;2023-05-10T06:17:28;15.60;99.90
18291;DHT22;9271;48.590;8.866;2023-05-10T06:19:56;16.20;99.90
18291;DHT22;9271;48.590;8.866;2023-05-10T06:22:22;16.50;99.90
18291;DHT22;9271;48.590;8.866;2023-05-10T06:24:49;16.50;99.90
18291;DHT22;9271;48.590;8.866;2023-05-10T06:27:15;16.80;99.90
18291;DHT22;9271;48.590;8.866;2023-05-10T06:29:42;17.30;99.90
18291;DHT22;9271;48.590;8.866;2023-05-10T06:32:09;17.40;99.90
18291;DHT22;9271;48.590;8.866;2023-05-10T06:34:36;17.40;99.90
18291;DHT22;9271;48.590;8.866;2023-05-10T06:37:04;16.80;99.90
18291;DHT22;9271;48.590;8.866;2023-05-10T06:39:30;17.00;99.90
18291;DHT22;9271;48.590;8.866;2023-05-10T06:41:57;16.90;99.90
18291;DHT22;9271;48.590;8.866;2023-05-10T06:44:24;16.20;99.90
18291;DHT22;9271;48.590;8.866;2023-05-10T06:46:50;15.70;99.90
18291;DHT22;9271;48.590;8.866;2023-05-10T06:49:18;15.60;99.90
18291;DHT22;9271;48.590;8.866;2023-05-10T06:51:45;16.20;99.90
18291;DHT22;9271;48.590;8.866;2023-05-10T06:54:13;16.70;99.90
18291;DHT22;9271;48.590;8.866;2023-05-10T06:56:40;16.40;99.90
18291;DHT22;9271;48.590;8.866;2023-05-10T06:59:06;16.00;99.90
18291;DHT22;9271;48.590;8.866;2023-05-10T07:01:33;16.00;99.90
18291;DHT22;9271;48.590;8.866;2023-05-10T07:04:00;15.90;99.90
18291;DHT22;9271;48.590;8.866;2023-05-10T07:06:26;16.10;99.90
18291;DHT22;9271;48.590;8.866;2023-05-10T07:08:53;16.10;99.90
18291;DHT22;9271;48.590;8.866;2023-05-10T07:11:21;15.80;99.90
18291;DHT22;9271;48.590;8.866;2023-05-10T07:13:47;16.20;99.90
18291;DHT22;9271;48.590;8.866;2023-05-10T07:16:14;16.20;99.90
18291;DHT22;9271;48.590;8.866;2023-05-10T07:18:41;16.30;99.90
18291;DHT22;9271;48.590;8.866;2023-05-10T07:21:07;16.50;99.90
18291;DHT22;9271;48.590;8.866;2023-05-10T07:23:34;16.60;99.90
18291;DHT22;9271;48.590;8.866;2023-05-10T07:26:01;16.10;99.90
18291;DHT22;9271;48.590;8.866;2023-05-10T07:28:28;16.20;99.90
18291;DHT22;9271;48.590;8.866;2023-05-10T07:30:55;16.10;99.90
18291;DHT22;9271;48.590;8.866;2023-05-10T07:33:22;16.10;99.90
18291;DHT22;9271;48.590;8.866;2023-05-10T07:35:49;16.50;99.90
18291;DHT22;9271;48.590;8.866;2023-05-10T07:38:17;17.10;99.90
18291;DHT22;9271;48.590;8.866;2023-05-10T07:40:43;17.30;99.90
18291;DHT22;9271;48.590;8.866;2023-05-10T07:43:10;17.50;99.90
18291;DHT22;9271;48.590;8.866;2023-05-10T07:45:38;17.70;99.90
18291;DHT22;9271;48.590;8.866;2023-05-10T07:48:05;18.10;99.90
18291;DHT22;9271;48.590;8.866;2023-05-10T07:50:31;18.30;99.90
18291;DHT22;9271;48.590;8.866;2023-05-10T07:52:58;17.60;99.90
18291;DHT22;9271;48.590;8.866;2023-05-10T07:55:25;17.00;99.90
18291;DHT22;9271;48.590;8.866;2023-05-10T07:57:51;16.40;99.90
18291;DHT22;9271;48.590;8.866;2023-05-10T08:00:19;16.50;99.90
18291;DHT22;9271;48.590;8.866;2023-05-10T08:02:47;16.90;99.90
18291;DHT22;9271;48.590;8.866;2023-05-10T08:05:14;16.80;99.90
18291;DHT22;9271;48.590;8.866;2023-05-10T08:07:41;16.60;99.90
18291;DHT22;9271;48.590;8.866;2023-05-10T08:10:09;16.80;99.90
18291;DHT22;9271;48.590;8.866;2023-05-10T08:12:36;17.00;99.90
18291;DHT22;9271;48.590;8.866;2023-05-10T08:15:04;16.90;99.90
18291;DHT22;9271;48.590;8.866;2023-05-10T08:17:31;17.20;99.90
18291;DHT22;9271;48.590;8.866;2023-05-10T08:19:59;17.60;99.90
18291;DHT22;9271;48.590;8.866;2023-05-10T08:22:26;17.40;99.90
18291;DHT22;9271;48.590;8.866;2023-05-10T08:24:53;17.60;99.90
18291;DHT22;9271;48.590;8.866;2023-05-10T08:27:19;17.80;99.90
18291;DHT22;9271;48.590;8.866;2023-05-10T08:29:46;18.20;99.90
18291;DHT22;9271;48.590;8.866;2023-05-10T08:32:13;17.90;99.90
18291;DHT22;9271;48.590;8.866;2023-05-10T08:34:39;17.60;99.90
18291;DHT22;9271;48.590;8.866;2023-05-10T08:37:07;18.60;99.50
18291;DHT22;9271;48.590;8.866;2023-05-10T08:39:35;18.60;98.60
18291;DHT22;9271;48.590;8.866;2023-05-10T08:42:04;19.20;99.10
18291;DHT22;9271;48.590;8.866;2023-05-10T08:44:32;19.00;97.00
18291;DHT22;9271;48.590;8.866;2023-05-10T08:47:02;18.60;97.50
18291;DHT22;9271;48.590;8.866;2023-05-10T08:49:31;18.30;98.10
18291;DHT22;9271;48.590;8.866;2023-05-10T08:52:01;17.80;98.80
18291;DHT22;9271;48.590;8.866;2023-05-10T08:54:30;18.00;98.50
18291;DHT22;9271;48.590;8.866;2023-05-10T08:56:57;18.20;98.90
18291;DHT22;9271;48.590;8.866;2023-05-10T08:59:24;18.20;98.60
18291;DHT22;9271;48.590;8.866;2023-05-10T09:01:51;18.70;98.10
18291;DHT22;9271;48.590;8.866;2023-05-10T09:04:19;19.30;97.60
18291;DHT22;9271;48.590;8.866;2023-05-10T09:06:46;19.40;96.40
18291;DHT22;9271;48.590;8.866;2023-05-10T09:09:13;19.00;97.40
18291;DHT22;9271;48.590;8.866;2023-05-10T09:11:43;18.60;97.70
18291;DHT22;9271;48.590;8.866;2023-05-10T09:14:10;19.80;98.10
18291;DHT22;9271;48.590;8.866;2023-05-10T09:16:37;20.80;95.70
18291;DHT22;9271;48.590;8.866;2023-05-10T09:19:04;20.60;93.90
18291;DHT22;9271;48.590;8.866;2023-05-10T09:21:32;20.70;94.10
18291;DHT22;9271;48.590;8.866;2023-05-10T09:24:03;19.90;94.90
18291;DHT22;9271;48.590;8.866;2023-05-10T09:26:30;19.80;95.50
18291;DHT22;9271;48.590;8.866;2023-05-10T09:28:59;20.70;94.40
18291;DHT22;9271;48.590;8.866;2023-05-10T09:31:43;21.50;93.70
18291;DHT22;9271;48.590;8.866;2023-05-10T09:34:10;21.90;92.50
18291;DHT22;9271;48.590;8.866;2023-05-10T09:36:37;22.10;92.70
18291;DHT22;9271;48.590;8.866;2023-05-10T09:39:15;22.30;90.10
18291;DHT22;9271;48.590;8.866;2023-05-10T09:41:42;22.20;92.30
18291;DHT22;9271;48.590;8.866;2023-05-10T09:44:10;22.80;92.20
18291;DHT22;9271;48.590;8.866;2023-05-10T09:46:37;22.80;90.50
18291;DHT22;9271;48.590;8.866;2023-05-10T09:49:05;23.60;88.80
18291;DHT22;9271;48.590;8.866;2023-05-10T09:51:32;24.30;89.60
18291;DHT22;9271;48.590;8.866;2023-05-10T09:54:09;24.60;86.50
18291;DHT22;9271;48.590;8.866;2023-05-10T09:56:37;24.70;83.40
18291;DHT22;9271;48.590;8.866;2023-05-10T09:59:06;24.80;85.10
18291;DHT22;9271;48.590;8.866;2023-05-10T10:01:34;25.50;84.10
18291;DHT22;9271;48.590;8.866;2023-05-10T10:04:04;24.80;82.10
18291;DHT22;9271;48.590;8.866;2023-05-10T10:06:35;24.00;85.40
18291;DHT22;9271;48.590;8.866;2023-05-10T10:09:03;23.00;86.50
18291;DHT22;9271;48.590;8.866;2023-05-10T10:11:30;22.70;88.70
18291;DHT22;9271;48.590;8.866;2023-05-10T10:13:57;21.40;89.20
18291;DHT22;9271;48.590;8.866;2023-05-10T10:16:24;20.30;91.20
18291;DHT22;9271;48.590;8.866;2023-05-10T10:18:52;19.20;92.60
18291;DHT22;9271;48.590;8.866;2023-05-10T10:21:19;18.20;94.10
18291;DHT22;9271;48.590;8.866;2023-05-10T10:23:46;17.90;95.00
18291;DHT22;9271;48.590;8.866;2023-05-10T10:26:14;17.30;96.20
18291;DHT22;9271;48.590;8.866;2023-05-10T10:28:49;16.60;97.10
18291;DHT22;9271;48.590;8.866;2023-05-10T10:31:26;16.40;98.20
18291;DHT22;9271;48.590;8.866;2023-05-10T10:34:00;16.60;98.60
18291;DHT22;9271;48.590;8.866;2023-05-10T10:36:28;16.70;98.50
18291;DHT22;9271;48.590;8.866;2023-05-10T10:38:57;17.00;98.00
18291;DHT22;9271;48.590;8.866;2023-05-10T10:41:33;16.50;97.90
18291;DHT22;9271;48.590;8.866;2023-05-10T10:44:26;17.00;97.50
18291;DHT22;9271;48.590;8.866;2023-05-10T10:47:00;17.30;97.20
18291;DHT22;9271;48.590;8.866;2023-05-10T10:49:30;18.30;97.50
18291;DHT22;9271;48.590;8.866;2023-05-10T10:52:23;19.30;96.10
18291;DHT22;9271;48.590;8.866;2023-05-10T10:54:52;20.20;94.80
18291;DHT22;9271;48.590;8.866;2023-05-10T10:57:20;20.00;93.00
18291;DHT22;9271;48.590;8.866;2023-05-10T10:59:48;20.20;93.60
18291;DHT22;9271;48.590;8.866;2023-05-10T11:02:34;21.00;93.00
18291;DHT22;9271;48.590;8.866;2023-05-10T11:05:23;20.90;91.00
18291;DHT22;9271;48.590;8.866;2023-05-10T11:07:52;19.80;92.20
18291;DHT22;9271;48.590;8.866;2023-05-10T11:10:19;19.40;92.60
18291;DHT22;9271;48.590;8.866;2023-05-10T11:12:51;18.70;92.50
18291;DHT22;9271;48.590;8.866;2023-05-10T11:15:19;18.30;94.20
18291;DHT22;9271;48.590;8.866;2023-05-10T11:17:47;18.20;93.30
18291;DHT22;9271;48.590;8.866;2023-05-10T11:20:18;18.00;94.40
18291;DHT22;9271;48.590;8.866;2023-05-10T11:22:52;18.00;93.50
18291;DHT22;9271;48.590;8.866;2023-05-10T11:25:18;18.10;93.10
18291;DHT22;9271;48.590;8.866;2023-05-10T11:27:47;18.20;93.30
18291;DHT22;9271;48.590;8.866;2023-05-10T11:30:14;18.90;92.50
18291;DHT22;9271;48.590;8.866;2023-05-10T11:32:41;18.40;92.10
18291;DHT22;9271;48.590;8.866;2023-05-10T11:35:08;17.80;92.20
18291;DHT22;9271;48.590;8.866;2023-05-10T11:37:36;17.40;93.60
18291;DHT22;9271;48.590;8.866;2023-05-10T11:40:07;18.00;93.40
18291;DHT22;9271;48.590;8.866;2023-05-10T11:42:36;18.30;92.00
18291;DHT22;9271;48.590;8.866;2023-05-10T11:45:04;18.30;92.80
18291;DHT22;9271;48.590;8.866;2023-05-10T11:47:30;17.90;92.70
18291;DHT22;9271;48.590;8.866;2023-05-10T11:49:57;17.20;93.70
18291;DHT22;9271;48.590;8.866;2023-05-10T11:52:24;16.90;94.10
18291;DHT22;9271;48.590;8.866;2023-05-10T11:54:53;16.70;94.00
18291;DHT22;9271;48.590;8.866;2023-05-10T11:57:25;16.40;94.80
18291;DHT22;9271;48.590;8.866;2023-05-10T11:59:53;16.60;94.80
18291;DHT22;9271;48.590;8.866;2023-05-10T12:02:20;16.20;95.10
18291;DHT22;9271;48.590;8.866;2023-05-10T12:04:47;16.10;95.40
18291;DHT22;9271;48.590;8.866;2023-05-10T12:07:13;16.60;95.10
18291;DHT22;9271;48.590;8.866;2023-05-10T12:09:42;16.90;94.80
18291;DHT22;9271;48.590;8.866;2023-05-10T12:12:11;16.50;95.10
18291;DHT22;9271;48.590;8.866;2023-05-10T12:14:42;16.90;94.30
18291;DHT22;9271;48.590;8.866;2023-05-10T12:17:11;17.30;94.40
18291;DHT22;9271;48.590;8.866;2023-05-10T12:19:38;17.60;93.40
18291;DHT22;9271;48.590;8.866;2023-05-10T12:22:05;17.60;93.20
18291;DHT22;9271;48.590;8.866;2023-05-10T12:24:34;17.30;92.40
18291;DHT22;9271;48.590;8.866;2023-05-10T12:27:04;17.60;92.60
18291;DHT22;9271;48.590;8.866;2023-05-10T12:29:34;17.60;93.60
18291;DHT22;9271;48.590;8.866;2023-05-10T12:32:02;17.10;92.90
18291;DHT22;9271;48.590;8.866;2023-05-10T12:34:31;17.50;92.60
18291;DHT22;9271;48.590;8.866;2023-05-10T12:36:58;17.80;91.20
18291;DHT22;9271;48.590;8.866;2023-05-10T12:39:25;17.90;90.80
18291;DHT22;9271;48.590;8.866;2023-05-10T12:41:52;17.60;91.70
18291;DHT22;9271;48.590;8.866;2023-05-10T12:44:19;17.40;91.20
18291;DHT22;9271;48.590;8.866;2023-05-10T12:46:47;16.60;91.50
18291;DHT22;9271;48.590;8.866;2023-05-10T12:49:13;16.80;92.70
18291;DHT22;9271;48.590;8.866;2023-05-10T12:51:40;17.30;91.80
18291;DHT22;9271;48.590;8.866;2023-05-10T12:54:07;17.50;92.30
18291;DHT22;9271;48.590;8.866;2023-05-10T12:56:33;17.40;91.50
18291;DHT22;9271;48.590;8.866;2023-05-10T12:59:00;17.50;91.20
18291;DHT22;9271;48.590;8.866;2023-05-10T13:01:26;17.30;91.70
18291;DHT22;9271;48.590;8.866;2023-05-10T13:03:54;17.70;91.50
18291;DHT22;9271;48.590;8.866;2023-05-10T13:06:21;18.10;90.70
18291;DHT22;9271;48.590;8.866;2023-05-10T13:08:48;17.80;91.80
18291;DHT22;9271;48.590;8.866;2023-05-10T13:11:14;18.50;92.00
18291;DHT22;9271;48.590;8.866;2023-05-10T13:13:42;19.10;90.80
18291;DHT22;9271;48.590;8.866;2023-05-10T13:16:08;19.40;89.00
18291;DHT22;9271;48.590;8.866;2023-05-10T13:18:35;18.80;89.80
18291;DHT22;9271;48.590;8.866;2023-05-10T13:21:03;18.00;90.50
18291;DHT22;9271;48.590;8.866;2023-05-10T13:23:30;18.30;90.90
18291;DHT22;9271;48.590;8.866;2023-05-10T13:25:57;18.10;91.40
18291;DHT22;9271;48.590;8.866;2023-05-10T13:28:24;18.70;91.40
18291;DHT22;9271;48.590;8.866;2023-05-10T13:30:51;19.60;88.80
18291;DHT22;9271;48.590;8.866;2023-05-10T13:33:18;20.20;89.00
18291;DHT22;9271;48.590;8.866;2023-05-10T13:35:44;20.00;87.70
18291;DHT22;9271;48.590;8.866;2023-05-10T13:38:13;19.80;89.20
18291;DHT22;9271;48.590;8.866;2023-05-10T13:40:39;20.00;87.50
18291;DHT22;9271;48.590;8.866;2023-05-10T13:43:06;19.40;87.80
18291;DHT22;9271;48.590;8.866;2023-05-10T13:45:33;19.40;88.20
18291;DHT22;9271;48.590;8.866;2023-05-10T13:47:59;20.00;86.00
18291;DHT22;9271;48.590;8.866;2023-05-10T13:50:26;19.50;86.50
18291;DHT22;9271;48.590;8.866;2023-05-10T13:52:53;19.60;87.00
18291;DHT22;9271;48.590;8.866;2023-05-10T13:55:21;20.40;84.50
18291;DHT22;9271;48.590;8.866;2023-05-10T13:57:48;21.10;82.50
18291;DHT22;9271;48.590;8.866;2023-05-10T14:00:15;21.10;82.40
18291;DHT22;9271;48.590;8.866;2023-05-10T14:02:42;19.90;82.90
18291;DHT22;9271;48.590;8.866;2023-05-10T14:05:08;19.20;86.10
18291;DHT22;9271;48.590;8.866;2023-05-10T14:07:35;19.40;87.70
18291;DHT22;9271;48.590;8.866;2023-05-10T14:10:02;19.90;86.20
18291;DHT22;9271;48.590;8.866;2023-05-10T14:12:30;20.50;87.00
18291;DHT22;9271;48.590;8.866;2023-05-10T14:14:57;20.70;82.80
18291;DHT22;9271;48.590;8.866;2023-05-10T14:17:24;19.90;84.60
18291;DHT22;9271;48.590;8.866;2023-05-10T14:19:50;19.50;83.00
18291;DHT22;9271;48.590;8.866;2023-05-10T14:22:17;19.30;84.40
18291;DHT22;9271;48.590;8.866;2023-05-10T14:24:44;18.90;86.20
18291;DHT22;9271;48.590;8.866;2023-05-10T14:27:12;18.60;86.00
18291;DHT22;9271;48.590;8.866;2023-05-10T14:29:40;18.70;86.80
18291;DHT22;9271;48.590;8.866;2023-05-10T14:32:07;18.50;85.60
18291;DHT22;9271;48.590;8.866;2023-05-10T14:34:33;18.10;86.80
18291;DHT22;9271;48.590;8.866;2023-05-10T14:37:00;17.60;88.00
18291;DHT22;9271;48.590;8.866;2023-05-10T14:39:27;17.80;89.00
18291;DHT22;9271;48.590;8.866;2023-05-10T14:41:54;18.60;90.00
18291;DHT22;9271;48.590;8.866;2023-05-10T14:44:21;19.80;85.00
18291;DHT22;9271;48.590;8.866;2023-05-10T14:46:50;20.00;84.20
18291;DHT22;9271;48.590;8.866;2023-05-10T14:49:17;20.10;82.80
18291;DHT22;9271;48.590;8.866;2023-05-10T14:51:43;20.10;83.70
18291;DHT22;9271;48.590;8.866;2023-05-10T14:54:11;20.00;86.50
18291;DHT22;9271;48.590;8.866;2023-05-10T14:56:37;20.10;81.10
18291;DHT22;9271;48.590;8.866;2023-05-10T14:59:04;20.00;82.40
18291;DHT22;9271;48.590;8.866;2023-05-10T15:01:31;20.40;83.10
18291;DHT22;9271;48.590;8.866;2023-05-10T15:03:59;20.90;81.60
18291;DHT22;9271;48.590;8.866;2023-05-10T15:06:30;21.10;81.20
18291;DHT22;9271;48.590;8.866;2023-05-10T15:08:57;21.60;82.70
18291;DHT22;9271;48.590;8.866;2023-05-10T15:11:24;21.80;79.20
18291;DHT22;9271;48.590;8.866;2023-05-10T15:13:51;21.30;76.20
18291;DHT22;9271;48.590;8.866;2023-05-10T15:16:17;20.40;81.70
18291;DHT22;9271;48.590;8.866;2023-05-10T15:18:44;20.40;80.70
18291;DHT22;9271;48.590;8.866;2023-05-10T15:21:12;20.70;79.00
18291;DHT22;9271;48.590;8.866;2023-05-10T15:23:39;20.30;80.40
18291;DHT22;9271;48.590;8.866;2023-05-10T15:26:06;20.30;82.30
18291;DHT22;9271;48.590;8.866;2023-05-10T15:28:33;20.60;81.00
18291;DHT22;9271;48.590;8.866;2023-05-10T15:30:59;21.10;83.00
18291;DHT22;9271;48.590;8.866;2023-05-10T15:33:26;21.20;80.20
18291;DHT22;9271;48.590;8.866;2023-05-10T15:35:53;21.20;78.10
18291;DHT22;9271;48.590;8.866;2023-05-10T15:38:21;21.10;78.90
18291;DHT22;9271;48.590;8.866;2023-05-10T15:40:48;21.60;80.20
18291;DHT22;9271;48.590;8.866;2023-05-10T15:43:15;22.00;78.90
18291;DHT22;9271;48.590;8.866;2023-05-10T15:45:42;21.20;81.20
18291;DHT22;9271;48.590;8.866;2023-05-10T15:48:08;21.40;81.10
18291;DHT22;9271;48.590;8.866;2023-05-10T15:50:35;21.10;79.00